KCTY/CTY METAR and TAF weather

Enter ICAO airport designator
Station Type Date Time Source
KCTY METAR 2020/07/10 19:55 UTC NOAA

KCTY 101955Z AUTO 25011KT SCT030 SCT035 SCT085 34/26 A2991 RMK AO2 LTG DSNT E T03380257


Station Type Date Time Source
KCTY Decoded METAR 2020/07/10 19:55 UTC NOAA

CROSS CITY AIRPORT, FL, United States (KCTY) 29-38N 083-06W 12M
Jul 10, 2020 - 03:55 PM EDT / 2020.07.10 1955 UTC
Wind: from the WSW (250 degrees) at 13 MPH (11 KT):0
Sky conditions: partly cloudy
Weather: Lightning observed
Temperature: 92.8 F (33.8 C)
Heat index: 108.3 F (42.4 C):1
Dew Point: 78.3 F (25.7 C)
Relative Humidity: 62%
Pressure (altimeter): 29.91 in. Hg (1012 hPa)
ob: KCTY 101955Z AUTO 25011KT SCT030 SCT035 SCT085 34/26 A2991 RMK AO2 LTG DSNT E T03380257
cycle: 20

Station Type Date Time Source
KCTY TAF UTC NOAA

Error!

Example: see airport list